createdAt,value
2023-01-27T00:03:52.983Z,-0.10
2023-01-27T00:08:54.629Z,-0.52
2023-01-27T00:13:56.318Z,-0.24
2023-01-27T00:18:57.929Z,-0.26
2023-01-27T00:24:17.813Z,-0.27
2023-01-27T00:29:19.474Z,-0.47
2023-01-27T00:34:21.075Z,-0.40
2023-01-27T00:39:22.704Z,-0.37
2023-01-27T00:44:24.388Z,-0.45
2023-01-27T00:49:26.020Z,-0.24
2023-01-27T00:54:27.652Z,-0.28
2023-01-27T00:59:29.248Z,-0.26
2023-01-27T01:04:30.834Z,-0.63
2023-01-27T01:09:32.443Z,-0.32
2023-01-27T01:14:34.030Z,-0.32
2023-01-27T01:19:35.738Z,-0.13
2023-01-27T01:24:38.006Z,-0.17
2023-01-27T01:29:39.599Z,-0.08
2023-01-27T01:34:41.283Z,-0.24
2023-01-27T01:39:42.934Z,-0.26
2023-01-27T01:44:45.701Z,-0.45
2023-01-27T01:49:47.902Z,-0.28
2023-01-27T01:54:56.204Z,-0.23
2023-01-27T02:00:04.565Z,-0.45
2023-01-27T02:05:28.168Z,-0.35
2023-01-27T02:10:29.836Z,-0.34
2023-01-27T02:15:31.821Z,-0.43
2023-01-27T02:20:46.633Z,-0.26
2023-01-27T02:25:49.009Z,-0.26
2023-01-27T02:30:50.862Z,-0.35
2023-01-27T02:36:09.862Z,-0.25
2023-01-27T02:41:19.705Z,-0.16
2023-01-27T02:46:22.062Z,-0.13
2023-01-27T02:51:23.827Z,-0.22
2023-01-27T02:56:25.896Z,-0.12
2023-01-27T03:01:32.622Z,-0.20
2023-01-27T03:06:34.971Z,-0.32
2023-01-27T03:11:55.256Z,-0.21
2023-01-27T03:17:15.776Z,-0.21
2023-01-27T03:22:17.756Z,-0.31
2023-01-27T03:27:19.560Z,-0.22
2023-01-27T03:32:53.774Z,-0.24
2023-01-27T03:38:35.820Z,-0.34
2023-01-27T03:43:56.322Z,-0.43
2023-01-27T03:48:59.937Z,-0.29
2023-01-27T03:54:01.587Z,-0.18
2023-01-27T03:59:03.246Z,-0.25
2023-01-27T04:04:23.119Z,-0.24
2023-01-27T04:09:30.174Z,-0.45
2023-01-27T04:14:39.291Z,-0.51
2023-01-27T04:19:41.710Z,-0.36
2023-01-27T04:24:44.149Z,-0.60
2023-01-27T04:29:45.748Z,-0.54
2023-01-27T04:34:47.356Z,-0.29
2023-01-27T04:39:48.973Z,-0.26
2023-01-27T04:44:50.573Z,-0.25
2023-01-27T04:49:52.164Z,-0.26
2023-01-27T04:54:53.798Z,-0.27
2023-01-27T04:59:55.407Z,-0.35
2023-01-27T05:04:58.075Z,-0.24
2023-01-27T05:09:59.681Z,-0.41
2023-01-27T05:15:01.369Z,-0.19
2023-01-27T05:20:03.104Z,-0.16
2023-01-27T05:25:05.174Z,-0.41
2023-01-27T05:30:07.765Z,-0.31
2023-01-27T05:35:09.563Z,-0.41
2023-01-27T05:40:11.867Z,-0.56
2023-01-27T05:45:13.763Z,-0.36
2023-01-27T05:50:15.915Z,-0.42
2023-01-27T05:55:17.587Z,-0.36
2023-01-27T06:00:19.790Z,-0.45
2023-01-27T06:05:21.395Z,-0.27
2023-01-27T06:10:23.030Z,-0.49
2023-01-27T06:15:24.742Z,-0.25
2023-01-27T06:20:26.355Z,-0.46
2023-01-27T06:25:27.990Z,-0.35
2023-01-27T06:30:29.629Z,-0.33
2023-01-27T06:35:32.536Z,-0.37
2023-01-27T06:40:35.235Z,-0.31
2023-01-27T06:45:36.852Z,-0.39
2023-01-27T06:50:38.548Z,-0.28
2023-01-27T06:55:41.813Z,-0.58
2023-01-27T07:00:43.645Z,-0.49
2023-01-27T07:05:45.379Z,-0.32
2023-01-27T07:10:47.133Z,-0.15
2023-01-27T07:15:54.096Z,-0.27
2023-01-27T07:20:55.744Z,-0.23
2023-01-27T07:25:58.748Z,-0.30
2023-01-27T07:31:02.697Z,-0.32
2023-01-27T07:36:04.486Z,-0.22
2023-01-27T07:41:07.129Z,-0.34
2023-01-27T07:46:08.901Z,-0.35
2023-01-27T07:51:14.546Z,-0.20
2023-01-27T07:56:16.249Z,-0.17
2023-01-27T08:01:17.908Z,-0.20
2023-01-27T08:06:19.564Z,-0.05
2023-01-27T08:11:21.451Z,-0.11
2023-01-27T08:16:23.120Z,-0.17
2023-01-27T08:21:25.434Z,-0.08
2023-01-27T08:26:27.676Z,0.01
2023-01-27T08:31:29.316Z,0.20
2023-01-27T08:36:31.029Z,0.30
2023-01-27T08:41:32.621Z,0.26
2023-01-27T08:46:34.759Z,-0.02
2023-01-27T08:51:36.380Z,0.02
2023-01-27T08:56:38.154Z,0.08
2023-01-27T09:01:41.710Z,0.17
2023-01-27T09:06:43.401Z,0.11
2023-01-27T09:11:45.475Z,0.23
2023-01-27T09:16:47.103Z,0.10
2023-01-27T09:21:48.722Z,0.39
2023-01-27T09:26:50.585Z,0.22
2023-01-27T09:31:52.271Z,0.44
2023-01-27T09:36:59.953Z,0.11
2023-01-27T09:42:35.539Z,0.17
2023-01-27T09:47:43.711Z,-0.08
2023-01-27T09:53:02.588Z,-0.08
2023-01-27T09:58:10.946Z,0.24
2023-01-27T10:03:30.915Z,0.07
2023-01-27T10:08:52.141Z,0.30
2023-01-27T10:14:02.853Z,0.78
2023-01-27T10:19:35.223Z,0.62
2023-01-27T10:25:05.449Z,0.50
2023-01-27T10:30:15.796Z,0.81
2023-01-27T10:35:22.513Z,0.83
2023-01-27T10:40:40.065Z,0.88
2023-01-27T10:45:50.462Z,0.95
2023-01-27T10:51:00.843Z,0.94
2023-01-27T10:56:28.741Z,0.95
2023-01-27T11:01:41.197Z,0.67
2023-01-27T11:06:45.721Z,0.71
2023-01-27T11:11:49.315Z,0.67
2023-01-27T11:16:55.421Z,0.59
2023-01-27T11:22:07.787Z,0.54
2023-01-27T11:27:55.180Z,0.67
2023-01-27T11:33:34.851Z,0.71
2023-01-27T11:38:36.813Z,0.50
2023-01-27T11:43:39.280Z,0.49
2023-01-27T11:48:45.935Z,0.37
2023-01-27T11:54:05.158Z,0.67
2023-01-27T11:59:13.595Z,0.63
2023-01-27T12:04:36.600Z,0.56
2023-01-27T12:09:40.113Z,0.71
2023-01-27T12:14:56.992Z,0.72
2023-01-27T12:20:21.734Z,0.67
2023-01-27T12:25:29.697Z,0.64
2023-01-27T12:30:39.133Z,0.64
2023-01-27T12:35:41.565Z,0.82
2023-01-27T12:40:46.029Z,1.14
2023-01-27T12:46:15.804Z,0.91
2023-01-27T12:51:21.996Z,0.79
2023-01-27T12:56:24.616Z,0.68
2023-01-27T13:01:36.386Z,0.96
2023-01-27T13:06:44.019Z,1.02
2023-01-27T13:11:45.686Z,0.84
2023-01-27T13:16:52.984Z,0.80
2023-01-27T13:21:55.337Z,0.88
2023-01-27T13:26:57.976Z,0.96
2023-01-27T13:32:19.689Z,0.76
2023-01-27T13:37:37.723Z,0.92
2023-01-27T13:42:51.834Z,0.81
2023-01-27T13:48:01.750Z,0.91
2023-01-27T13:53:04.434Z,0.80
2023-01-27T13:58:18.441Z,1.06
2023-01-27T14:03:29.385Z,1.14
2023-01-27T14:08:46.868Z,1.18
2023-01-27T14:14:05.036Z,1.13
2023-01-27T14:19:24.215Z,1.24
2023-01-27T14:24:41.332Z,1.14
2023-01-27T14:29:50.751Z,1.15
2023-01-27T14:35:18.434Z,1.05
2023-01-27T14:40:58.533Z,1.19
2023-01-27T14:46:10.945Z,1.18
2023-01-27T14:51:24.040Z,1.23
2023-01-27T14:56:37.907Z,1.12
2023-01-27T15:02:17.415Z,1.09
2023-01-27T15:07:33.391Z,1.13
2023-01-27T15:12:53.033Z,1.18
2023-01-27T15:18:19.465Z,0.99
2023-01-27T15:23:45.566Z,1.09
2023-01-27T15:28:47.581Z,0.74
2023-01-27T15:33:51.881Z,0.64
2023-01-27T15:39:00.235Z,0.70
2023-01-27T15:44:33.007Z,0.68
2023-01-27T15:49:46.712Z,0.72
2023-01-27T15:54:51.695Z,0.79
2023-01-27T15:59:59.237Z,0.78
2023-01-27T16:05:20.714Z,0.90
2023-01-27T16:10:24.911Z,0.94
2023-01-27T16:15:35.310Z,1.01
2023-01-27T16:21:02.048Z,1.18
2023-01-27T16:26:35.219Z,1.22
2023-01-27T16:31:38.285Z,0.87
2023-01-27T16:36:40.395Z,1.03
2023-01-27T16:41:53.493Z,0.93
2023-01-27T16:47:05.022Z,0.87
2023-01-27T16:52:42.488Z,0.98
2023-01-27T16:57:45.750Z,1.10
2023-01-27T17:02:48.206Z,1.07
2023-01-27T17:08:03.461Z,1.10
2023-01-27T17:13:05.109Z,1.22
2023-01-27T17:18:11.354Z,1.06
2023-01-27T17:23:29.160Z,0.95
2023-01-27T17:28:30.846Z,1.06
2023-01-27T17:33:33.536Z,1.03
2023-01-27T17:38:43.213Z,0.94
2023-01-27T17:43:44.837Z,1.00
2023-01-27T17:49:08.379Z,0.96
2023-01-27T17:54:33.417Z,0.95
2023-01-27T17:59:38.607Z,0.90
2023-01-27T18:04:42.198Z,0.89
2023-01-27T18:09:53.834Z,0.91
2023-01-27T18:14:55.743Z,0.98
2023-01-27T18:19:57.386Z,0.98
2023-01-27T18:25:03.772Z,1.09
2023-01-27T18:30:16.079Z,0.92
2023-01-27T18:35:23.315Z,1.04
2023-01-27T18:40:31.104Z,1.00
2023-01-27T18:45:32.741Z,1.04
2023-01-27T18:50:40.811Z,1.02
2023-01-27T18:55:42.692Z,0.95
2023-01-27T19:00:50.701Z,1.02
2023-01-27T19:05:53.287Z,1.04
2023-01-27T19:10:54.962Z,0.98
2023-01-27T19:15:57.648Z,0.96
2023-01-27T19:20:59.863Z,0.93
2023-01-27T19:26:03.632Z,0.99
2023-01-27T19:31:06.750Z,1.03
2023-01-27T19:36:08.358Z,0.86
2023-01-27T19:41:10.922Z,1.00
2023-01-27T19:46:19.730Z,1.06
2023-01-27T19:51:21.504Z,0.98
2023-01-27T19:56:23.571Z,1.01
2023-01-27T20:01:25.711Z,0.91
2023-01-27T20:06:30.957Z,0.93
2023-01-27T20:11:37.830Z,0.94
2023-01-27T20:16:39.761Z,1.06
2023-01-27T20:21:42.765Z,1.04
2023-01-27T20:26:45.078Z,0.93
2023-01-27T20:31:49.588Z,0.90
2023-01-27T20:36:51.203Z,0.90
2023-01-27T20:41:52.800Z,0.94
2023-01-27T20:46:54.571Z,0.98
2023-01-27T20:51:56.910Z,0.97
2023-01-27T20:56:58.541Z,0.98
2023-01-27T21:02:00.246Z,0.97
2023-01-27T21:07:01.865Z,0.96
2023-01-27T21:12:03.720Z,0.95
2023-01-27T21:17:05.723Z,0.94
2023-01-27T21:22:07.329Z,1.06
2023-01-27T21:27:09.154Z,1.18
2023-01-27T21:32:10.794Z,1.15
2023-01-27T21:37:12.396Z,1.04
2023-01-27T21:42:14.560Z,1.19
2023-01-27T21:47:18.781Z,1.13
2023-01-27T21:52:25.137Z,1.22
2023-01-27T21:57:26.916Z,1.18
2023-01-27T22:02:29.584Z,1.12
2023-01-27T22:07:34.368Z,1.28
2023-01-27T22:12:36.107Z,1.18
2023-01-27T22:17:37.757Z,1.25
2023-01-27T22:22:39.352Z,1.27
2023-01-27T22:27:42.019Z,1.33
2023-01-27T22:32:44.735Z,1.12
2023-01-27T22:37:48.921Z,1.03
2023-01-27T22:42:50.909Z,0.98
2023-01-27T22:47:52.691Z,1.11
2023-01-27T22:52:54.290Z,1.16
2023-01-27T22:57:55.890Z,1.26
2023-01-27T23:02:57.482Z,1.37
2023-01-27T23:07:59.069Z,1.33
2023-01-27T23:13:01.058Z,1.21
2023-01-27T23:18:02.673Z,1.12
2023-01-27T23:23:04.274Z,1.18
2023-01-27T23:28:05.858Z,1.30
2023-01-27T23:33:07.464Z,1.22
2023-01-27T23:38:22.637Z,1.12
2023-01-27T23:43:31.462Z,1.03
2023-01-27T23:48:33.065Z,1.18
2023-01-27T23:53:34.831Z,1.11
2023-01-27T23:58:36.434Z,1.21
